createdAt,value
2022-12-25T00:02:02.437Z,23.30
2022-12-25T00:17:07.879Z,24.40
2022-12-25T00:32:12.658Z,16.90
2022-12-25T00:47:30.646Z,16.50
2022-12-25T01:02:48.461Z,17.90
2022-12-25T01:17:53.100Z,14.50
2022-12-25T01:32:57.395Z,12.90
2022-12-25T01:48:07.122Z,12.80
2022-12-25T02:03:26.038Z,12.50
2022-12-25T02:19:09.003Z,10.80
2022-12-25T02:35:01.101Z,9.60
2022-12-25T02:50:27.259Z,8.10
2022-12-25T03:05:54.520Z,6.40
2022-12-25T03:21:18.222Z,7.50
2022-12-25T03:37:10.998Z,7.70
2022-12-25T03:52:38.886Z,7.60
2022-12-25T04:08:15.986Z,7.70
2022-12-25T04:23:52.228Z,8.00
2022-12-25T04:38:56.566Z,8.70
2022-12-25T04:54:00.626Z,7.80
2022-12-25T05:09:05.559Z,9.30
2022-12-25T05:24:27.999Z,7.90
2022-12-25T05:39:32.206Z,9.10
2022-12-25T06:09:54.183Z,8.60
2022-12-25T06:24:58.627Z,9.20
2022-12-25T06:40:02.997Z,7.30
2022-12-25T06:55:20.649Z,8.80
2022-12-25T07:10:25.663Z,7.80
2022-12-25T07:25:43.388Z,6.90
2022-12-25T07:41:01.588Z,7.60
2022-12-25T07:56:19.474Z,9.50
2022-12-25T08:11:23.993Z,7.50
2022-12-25T08:26:28.185Z,8.10
2022-12-25T08:41:33.217Z,7.70
2022-12-25T08:56:51.065Z,7.70
2022-12-25T09:11:55.971Z,9.50
2022-12-25T09:26:59.936Z,7.20
2022-12-25T09:42:29.462Z,7.10
2022-12-25T09:57:34.141Z,7.90
2022-12-25T10:13:11.848Z,6.80
2022-12-25T10:28:45.051Z,6.30
2022-12-25T10:43:55.403Z,5.90
2022-12-25T11:14:30.817Z,7.40
2022-12-25T11:29:48.365Z,7.50
2022-12-25T12:00:35.824Z,7.90
2022-12-25T12:15:47.403Z,7.70
2022-12-25T12:31:10.608Z,8.90
2022-12-25T12:46:48.818Z,8.00
2022-12-25T13:02:25.564Z,9.50
2022-12-25T13:17:46.946Z,9.90
2022-12-25T13:33:04.766Z,9.10
2022-12-25T13:48:16.636Z,8.10
2022-12-25T14:03:39.833Z,9.40
2022-12-25T14:19:00.778Z,7.90
2022-12-25T15:04:44.422Z,14.00
2022-12-25T15:19:49.182Z,16.20
2022-12-25T15:34:54.095Z,13.00
2022-12-25T15:49:58.702Z,10.80
2022-12-25T16:05:16.574Z,12.20
2022-12-25T16:20:34.862Z,14.60
2022-12-25T16:35:39.253Z,14.00
2022-12-25T16:50:44.301Z,14.10
2022-12-25T17:05:48.762Z,15.40
2022-12-25T17:20:54.218Z,12.70
2022-12-25T17:36:08.244Z,15.70
2022-12-25T17:51:29.437Z,14.00
2022-12-25T18:06:36.535Z,16.80
2022-12-25T18:21:40.468Z,16.40
2022-12-25T18:37:03.223Z,14.60
2022-12-25T18:52:47.503Z,16.70
2022-12-25T19:07:45.175Z,15.60
2022-12-25T19:38:21.542Z,17.50
2022-12-25T19:53:26.617Z,14.20
2022-12-25T20:08:31.299Z,16.40
2022-12-25T20:23:35.650Z,10.60
2022-12-25T20:54:25.239Z,16.30
2022-12-25T21:09:29.415Z,14.40
2022-12-25T21:24:33.440Z,14.70
2022-12-25T21:39:52.052Z,15.80
2022-12-25T21:54:56.409Z,13.40
2022-12-25T22:25:20.339Z,11.50
2022-12-25T22:40:24.595Z,13.00
2022-12-25T22:55:28.839Z,12.50
2022-12-25T23:10:32.660Z,13.40
2022-12-25T23:25:55.393Z,11.10
2022-12-25T23:40:59.914Z,12.40
2022-12-25T23:56:05.094Z,11.30
